Terminal Aerodrome Forecast
Issued by NWS

Current Version | Previous Version | Text Only | Print | Product List | Glossary On
Versions: 1 2 3 4 5 6 7 8 9 10 11 12 13 14 15 16 17 18 19 20 21 22 23 24 25 26 27 28 29 30 31 32 33 34 35 36 37 38 39 40 41 42 43 44
000
FTAK31 PAFA 191722
TAFATA
TAF
PATA 191722Z 1918/2018 VRB03KT 2SM BR OVC002
     FM192300 VRB03KT 2SM -SN BR OVC003
     FM200600 10005KT 2SM -SN BR SCT025 OVC040=

USA.gov is the U.S. government's official web portal to all federal, state and local government web resources and services.